Hlavní strana
METAR-TAF:

METAR-TAF

Letiště :

David, Panama

zeměpisná šířka: 08-24N, zeměpisná délka: 082-25W, výška: 29 m

Aktuální stav počasí

Zpráva byla vytvořena před 43 minutami, v 11:00 UTC
Jižní vítr 2 kt
Teplota 23°C
Vlhkost vzduchu 100%
Tlak 1010 hPa
Viditelnost 10 km a více
Polojasno ve výšce 1800 ft

METAR: MPDA 241100Z 18002KT 9999 SCT018 23/23 Q1010

Čas: 06:43 (11:43 UTC)

Předpověď počasí

Zpráva byla vytvořena před 1 hodinou a 13 minutami, v 10:30 UTC
Předpověď platná od 24 v 12 UTC do 24 v 24 UTC
Jižní vítr 8 kt
Viditelnost 10 km a více
Skoro jasno ve výšce 1800 ft
Polojasno ve výšce 10000 ft
Změna
od 24 v 18 UTC do 24 v 22 UTC
Západojihozápadní vítr 12 kt
Viditelnost: 8000 m
Polojasno ve výšce 1500 ft, Vertikální cumulus.
Polojasno ve výšce 8000 ft
přeháňky v blízkosti

TAF: MPDA 241030Z 2412/2424 18008KT 9999 FEW018 SCT100 BECMG 2418/2422 24012KT 8000 VCSH SCT015TCU SCT080

Stav a předpovědi počasí z více než 4 000 letišť (zprávy METAR a TAF).

Červené a žluté tečky na mapě představují dostupné meteorologické stanice.

Když kurzor umístíte na tečku, zobrazí se název stanice.

Pak kliknutím zobrazíte stav a předpověď počasí.

Chcete-li změnit mapu, kliknutím na zelené tlačítko se znaménkem +mapu přiblížíte, kliknutím na zelené tlačítko se znaménkem – mapu oddálíte a kliknutím na zelené šipky přejdete na sousední mapy.


METAR-TAF: